sensor_id;sensor_type;location;lat;lon;timestamp;pressure;altitude;pressure_sealevel;temperature;humidity
56632;BME280;42503;39.928;-75.152;2023-02-23T00:03:57;101414.94;;;20.00;38.73
56632;BME280;42503;39.928;-75.152;2023-02-23T00:14:02;101440.63;;;20.12;38.65
56632;BME280;42503;39.928;-75.152;2023-02-23T00:24:08;101421.22;;;20.17;39.06
56632;BME280;42503;39.928;-75.152;2023-02-23T00:34:18;101391.25;;;20.24;38.97
56632;BME280;42503;39.928;-75.152;2023-02-23T00:44:24;101344.38;;;20.33;38.77
56632;BME280;42503;39.928;-75.152;2023-02-23T00:54:25;101393.63;;;20.43;38.41
56632;BME280;42503;39.928;-75.152;2023-02-23T01:04:27;101385.94;;;20.50;38.10
56632;BME280;42503;39.928;-75.152;2023-02-23T01:14:28;101374.81;;;20.50;37.96
56632;BME280;42503;39.928;-75.152;2023-02-23T01:24:32;101350.06;;;20.48;37.97
56632;BME280;42503;39.928;-75.152;2023-02-23T01:34:34;101384.91;;;20.66;37.83
56632;BME280;42503;39.928;-75.152;2023-02-23T01:54:47;101346.59;;;20.73;38.11
56632;BME280;42503;39.928;-75.152;2023-02-23T02:04:51;101345.78;;;20.78;38.01
56632;BME280;42503;39.928;-75.152;2023-02-23T02:14:57;101343.31;;;20.81;37.72
56632;BME280;42503;39.928;-75.152;2023-02-23T02:46:12;101331.63;;;20.85;37.57
56632;BME280;42503;39.928;-75.152;2023-02-23T02:56:19;101313.34;;;20.94;37.54
56632;BME280;42503;39.928;-75.152;2023-02-23T03:06:33;101279.38;;;20.97;37.13
56632;BME280;42503;39.928;-75.152;2023-02-23T03:17:06;101246.00;;;21.02;37.09
56632;BME280;42503;39.928;-75.152;2023-02-23T03:38:35;101214.88;;;21.05;37.35
56632;BME280;42503;39.928;-75.152;2023-02-23T03:49:00;101203.75;;;21.15;37.36
56632;BME280;42503;39.928;-75.152;2023-02-23T03:59:37;101159.22;;;21.20;37.02
56632;BME280;42503;39.928;-75.152;2023-02-23T04:09:58;101100.78;;;21.10;36.50
56632;BME280;42503;39.928;-75.152;2023-02-23T04:20:19;101051.50;;;21.21;36.79
56632;BME280;42503;39.928;-75.152;2023-02-23T04:30:21;101064.59;;;21.41;36.34
56632;BME280;42503;39.928;-75.152;2023-02-23T04:40:28;101075.47;;;21.42;36.48
56632;BME280;42503;39.928;-75.152;2023-02-23T04:50:29;101030.09;;;21.42;35.80
56632;BME280;42503;39.928;-75.152;2023-02-23T05:00:31;101047.34;;;21.39;36.32
56632;BME280;42503;39.928;-75.152;2023-02-23T05:10:33;101065.16;;;21.43;35.38
56632;BME280;42503;39.928;-75.152;2023-02-23T05:20:35;101079.38;;;21.41;35.95
56632;BME280;42503;39.928;-75.152;2023-02-23T05:30:36;101000.88;;;21.24;35.54
56632;BME280;42503;39.928;-75.152;2023-02-23T05:40:38;101035.66;;;21.21;35.72
56632;BME280;42503;39.928;-75.152;2023-02-23T05:50:39;101054.03;;;21.33;35.30
56632;BME280;42503;39.928;-75.152;2023-02-23T06:00:41;101045.13;;;21.30;35.40
56632;BME280;42503;39.928;-75.152;2023-02-23T06:10:42;101047.34;;;21.28;35.50
56632;BME280;42503;39.928;-75.152;2023-02-23T06:20:47;101003.38;;;21.15;35.54
56632;BME280;42503;39.928;-75.152;2023-02-23T06:30:51;100993.94;;;21.21;35.80
56632;BME280;42503;39.928;-75.152;2023-02-23T06:40:55;100970.56;;;21.12;35.78
56632;BME280;42503;39.928;-75.152;2023-02-23T06:50:58;100969.44;;;21.18;35.27
56632;BME280;42503;39.928;-75.152;2023-02-23T07:01:00;100938.84;;;21.13;35.61
56632;BME280;42503;39.928;-75.152;2023-02-23T07:11:09;100920.50;;;21.12;35.81
56632;BME280;42503;39.928;-75.152;2023-02-23T07:21:11;100921.56;;;21.11;35.59
56632;BME280;42503;39.928;-75.152;2023-02-23T07:31:12;100873.81;;;20.94;35.38
56632;BME280;42503;39.928;-75.152;2023-02-23T07:41:13;100862.06;;;21.02;35.17
56632;BME280;42503;39.928;-75.152;2023-02-23T07:51:15;100835.66;;;21.04;35.35
56632;BME280;42503;39.928;-75.152;2023-02-23T08:01:17;100814.88;;;20.81;35.17
56632;BME280;42503;39.928;-75.152;2023-02-23T08:11:21;100840.94;;;21.01;35.20
56632;BME280;42503;39.928;-75.152;2023-02-23T08:21:23;100836.78;;;20.93;35.40
56632;BME280;42503;39.928;-75.152;2023-02-23T08:31:24;100812.00;;;20.97;35.24
56632;BME280;42503;39.928;-75.152;2023-02-23T08:41:27;100823.16;;;20.97;35.54
56632;BME280;42503;39.928;-75.152;2023-02-23T08:51:28;100782.53;;;20.96;35.26
56632;BME280;42503;39.928;-75.152;2023-02-23T09:01:33;100818.16;;;20.94;35.29
56632;BME280;42503;39.928;-75.152;2023-02-23T09:11:34;100795.06;;;20.93;35.25
56632;BME280;42503;39.928;-75.152;2023-02-23T09:21:36;100798.13;;;20.92;35.21
56632;BME280;42503;39.928;-75.152;2023-02-23T09:31:38;100798.13;;;20.92;34.96
56632;BME280;42503;39.928;-75.152;2023-02-23T09:52:19;100859.34;;;20.87;35.18
56632;BME280;42503;39.928;-75.152;2023-02-23T10:02:36;100805.16;;;20.74;35.23
56632;BME280;42503;39.928;-75.152;2023-02-23T10:23:09;100802.09;;;20.80;35.02
56632;BME280;42503;39.928;-75.152;2023-02-23T10:33:22;100823.75;;;20.84;35.31
56632;BME280;42503;39.928;-75.152;2023-02-23T10:43:25;100855.47;;;20.83;35.25
56632;BME280;42503;39.928;-75.152;2023-02-23T10:53:34;100891.91;;;20.81;35.05
56632;BME280;42503;39.928;-75.152;2023-02-23T11:03:47;100839.91;;;20.76;35.31
56632;BME280;42503;39.928;-75.152;2023-02-23T11:13:53;100878.56;;;20.78;34.85
56632;BME280;42503;39.928;-75.152;2023-02-23T11:23:56;100861.31;;;20.76;34.89
56632;BME280;42503;39.928;-75.152;2023-02-23T11:33:59;100894.44;;;20.72;35.02
56632;BME280;42503;39.928;-75.152;2023-02-23T11:44:18;100889.72;;;20.63;35.15
56632;BME280;42503;39.928;-75.152;2023-02-23T11:54:26;100934.19;;;20.73;34.80
56632;BME280;42503;39.928;-75.152;2023-02-23T12:04:34;100971.72;;;20.65;34.96
56632;BME280;42503;39.928;-75.152;2023-02-23T12:14:42;101008.97;;;20.69;34.94
56632;BME280;42503;39.928;-75.152;2023-02-23T12:24:58;101000.34;;;20.66;35.21
56632;BME280;42503;39.928;-75.152;2023-02-23T12:35:32;101011.47;;;20.55;35.26
56632;BME280;42503;39.928;-75.152;2023-02-23T13:16:56;101034.50;;;20.36;40.12
56632;BME280;42503;39.928;-75.152;2023-02-23T13:27:14;101061.97;;;20.17;40.90
56632;BME280;42503;39.928;-75.152;2023-02-23T13:37:21;101062.28;;;20.25;41.08
56632;BME280;42503;39.928;-75.152;2023-02-23T13:47:52;101044.47;;;20.26;40.83
56632;BME280;42503;39.928;-75.152;2023-02-23T13:58:12;101061.97;;;20.17;40.33
56632;BME280;42503;39.928;-75.152;2023-02-23T14:08:37;101050.03;;;20.21;40.17
56632;BME280;42503;39.928;-75.152;2023-02-23T14:29:23;101042.75;;;20.10;39.92
56632;BME280;42503;39.928;-75.152;2023-02-23T14:39:27;101066.13;;;20.19;40.03
56632;BME280;42503;39.928;-75.152;2023-02-23T14:50:23;101079.16;;;20.09;39.46
56632;BME280;42503;39.928;-75.152;2023-02-23T15:00:00;101081.66;;;20.15;39.27
56632;BME280;42503;39.928;-75.152;2023-02-23T15:10:08;101047.13;;;19.86;39.51
56632;BME280;42503;39.928;-75.152;2023-02-23T15:20:16;101095.28;;;20.12;39.50
56632;BME280;42503;39.928;-75.152;2023-02-23T15:40:25;101123.59;;;20.09;38.97
56632;BME280;42503;39.928;-75.152;2023-02-23T15:50:32;101123.28;;;20.05;39.22
56632;BME280;42503;39.928;-75.152;2023-02-23T16:00:43;101111.63;;;20.03;39.07
56632;BME280;42503;39.928;-75.152;2023-02-23T16:10:46;101087.38;;;19.88;39.44
56632;BME280;42503;39.928;-75.152;2023-02-23T16:21:03;101125.44;;;19.93;39.02
56632;BME280;42503;39.928;-75.152;2023-02-23T16:31:07;101134.09;;;19.96;39.05
56632;BME280;42503;39.928;-75.152;2023-02-23T16:41:17;101134.94;;;20.02;39.21
56632;BME280;42503;39.928;-75.152;2023-02-23T16:51:23;101141.06;;;19.99;39.34
56632;BME280;42503;39.928;-75.152;2023-02-23T17:01:24;101116.59;;;20.01;39.27
56632;BME280;42503;39.928;-75.152;2023-02-23T17:11:26;101131.59;;;20.00;39.51
56632;BME280;42503;39.928;-75.152;2023-02-23T17:21:27;101103.28;;;19.98;39.25
56632;BME280;42503;39.928;-75.152;2023-02-23T17:31:36;101097.16;;;19.96;39.14
56632;BME280;42503;39.928;-75.152;2023-02-23T17:41:39;101108.56;;;19.99;39.33
56632;BME280;42503;39.928;-75.152;2023-02-23T17:51:40;101119.91;;;19.93;39.22
56632;BME280;42503;39.928;-75.152;2023-02-23T18:01:42;101140.44;;;19.92;39.42
56632;BME280;42503;39.928;-75.152;2023-02-23T18:11:43;101161.63;;;19.98;39.33
56632;BME280;42503;39.928;-75.152;2023-02-23T18:21:45;101159.66;;;19.98;39.40
56632;BME280;42503;39.928;-75.152;2023-02-23T18:31:46;101161.03;;;19.96;39.37
56632;BME280;42503;39.928;-75.152;2023-02-23T18:41:49;101159.38;;;20.00;39.25
56632;BME280;42503;39.928;-75.152;2023-02-23T18:51:50;101159.88;;;19.92;39.41
56632;BME280;42503;39.928;-75.152;2023-02-23T19:01:55;101173.28;;;20.00;39.44
56632;BME280;42503;39.928;-75.152;2023-02-23T19:11:59;101182.72;;;19.99;39.13
56632;BME280;42503;39.928;-75.152;2023-02-23T19:22:00;101183.28;;;20.01;39.08
56632;BME280;42503;39.928;-75.152;2023-02-23T19:32:02;101152.66;;;19.86;39.36
56632;BME280;42503;39.928;-75.152;2023-02-23T19:42:04;101178.31;;;20.03;39.04
56632;BME280;42503;39.928;-75.152;2023-02-23T19:52:05;101172.19;;;20.06;38.92
56632;BME280;42503;39.928;-75.152;2023-02-23T20:02:09;101186.66;;;20.08;39.01
56632;BME280;42503;39.928;-75.152;2023-02-23T20:12:10;101175.81;;;20.06;39.00
56632;BME280;42503;39.928;-75.152;2023-02-23T20:22:12;101183.31;;;20.06;39.28
56632;BME280;42503;39.928;-75.152;2023-02-23T20:32:13;101193.34;;;20.07;39.40
56632;BME280;42503;39.928;-75.152;2023-02-23T20:42:17;101199.72;;;20.08;39.25
56632;BME280;42503;39.928;-75.152;2023-02-23T20:52:19;101204.44;;;20.07;39.23
56632;BME280;42503;39.928;-75.152;2023-02-23T21:02:20;101202.22;;;20.09;39.08
56632;BME280;42503;39.928;-75.152;2023-02-23T21:12:24;101220.00;;;20.08;39.34
56632;BME280;42503;39.928;-75.152;2023-02-23T21:22:26;101230.00;;;20.09;39.20
56632;BME280;42503;39.928;-75.152;2023-02-23T21:32:30;101216.03;;;19.94;39.68
56632;BME280;42503;39.928;-75.152;2023-02-23T21:42:39;101238.31;;;20.04;39.26
56632;BME280;42503;39.928;-75.152;2023-02-23T21:52:42;101196.13;;;20.12;39.96
56632;BME280;42503;39.928;-75.152;2023-02-23T22:02:47;101159.75;;;20.14;39.98
56632;BME280;42503;39.928;-75.152;2023-02-23T22:12:49;101174.47;;;20.19;39.64
56632;BME280;42503;39.928;-75.152;2023-02-23T22:22:55;101173.97;;;20.27;39.35
56632;BME280;42503;39.928;-75.152;2023-02-23T22:32:57;101182.91;;;20.35;38.91
56632;BME280;42503;39.928;-75.152;2023-02-23T22:42:58;101166.81;;;20.42;39.00
56632;BME280;42503;39.928;-75.152;2023-02-23T22:52:59;101170.72;;;20.46;39.29
56632;BME280;42503;39.928;-75.152;2023-02-23T23:03:01;101163.00;;;20.53;39.28
56632;BME280;42503;39.928;-75.152;2023-02-23T23:13:04;101166.34;;;20.60;39.22
56632;BME280;42503;39.928;-75.152;2023-02-23T23:23:05;101189.44;;;20.66;39.43
56632;BME280;42503;39.928;-75.152;2023-02-23T23:33:07;101198.66;;;20.71;39.54
56632;BME280;42503;39.928;-75.152;2023-02-23T23:43:08;101194.19;;;20.75;39.05
56632;BME280;42503;39.928;-75.152;2023-02-23T23:53:09;101216.47;;;20.80;39.12
